Time,TemperatureF,DewpointF,PressureIn,WindDirection,WindDirectionDegrees,WindSpeedMPH,WindSpeedGustMPH,Humidity,HourlyPrecipIn,Conditions,Clouds,dailyrainin,SoftwareType,DateUTC
2013-03-18 00:02:00,27.5,13.5,30.15,NNE,22,6.3,-999.0,55,-99.99,,,0.00,Acu-Link.com,2013-03-18 04:02:00,
2013-03-18 00:17:00,27.3,13.7,30.16,NNE,22,5.3,-999.0,56,-99.99,,,0.00,Acu-Link.com,2013-03-18 04:17:00,
2013-03-18 00:32:00,27.1,13.5,30.15,NE,45,4.7,-999.0,56,-99.99,,,0.00,Acu-Link.com,2013-03-18 04:32:00,
2013-03-18 00:48:00,26.8,14.0,30.18,NNE,22,2.7,-999.0,58,-99.99,,,0.00,Acu-Link.com,2013-03-18 04:48:00,
2013-03-18 01:03:00,26.6,13.8,30.16,NNE,22,4.7,-999.0,58,-99.99,,,0.00,Acu-Link.com,2013-03-18 05:03:00,
2013-03-18 01:18:00,26.2,13.9,30.17,NE,45,1.7,-999.0,59,-99.99,,,0.00,Acu-Link.com,2013-03-18 05:18:00,
2013-03-18 01:34:00,25.9,14.7,30.18,North,0,2.7,-999.0,62,-99.99,,,0.00,Acu-Link.com,2013-03-18 05:34:00,
2013-03-18 01:49:00,25.9,13.6,30.16,NE,45,4.7,-999.0,59,-99.99,,,0.00,Acu-Link.com,2013-03-18 05:49:00,
2013-03-18 02:04:00,25.5,12.4,30.17,ENE,67,7.8,-999.0,57,-99.99,,,0.00,Acu-Link.com,2013-03-18 06:04:00,
2013-03-18 02:19:00,25.2,12.9,30.17,NE,45,0.0,-999.0,59,-99.99,,,0.00,Acu-Link.com,2013-03-18 06:19:00,
2013-03-18 02:35:00,24.8,12.5,30.19,NE,45,0.0,-999.0,59,-99.99,,,0.00,Acu-Link.com,2013-03-18 06:35:00,
2013-03-18 02:50:00,24.6,12.3,30.19,ENE,67,0.0,-999.0,59,-99.99,,,0.00,Acu-Link.com,2013-03-18 06:50:00,
2013-03-18 03:05:00,24.3,12.4,30.19,NNE,22,0.0,-999.0,60,-99.99,,,0.00,Acu-Link.com,2013-03-18 07:05:00,
2013-03-18 03:20:00,24.1,12.3,30.20,North,0,0.0,-999.0,60,-99.99,,,0.00,Acu-Link.com,2013-03-18 07:20:00,
2013-03-18 03:51:00,23.5,12.8,30.20,NE,45,0.0,-999.0,63,-99.99,,,0.00,Acu-Link.com,2013-03-18 07:51:00,
2013-03-18 04:07:00,23.4,12.3,30.21,North,0,4.2,-999.0,62,-99.99,,,0.00,Acu-Link.com,2013-03-18 08:07:00,
2013-03-18 04:22:00,23.2,12.5,30.19,ENE,67,0.0,-999.0,63,-99.99,,,0.00,Acu-Link.com,2013-03-18 08:22:00,
2013-03-18 04:37:00,23.0,12.3,30.21,NE,45,0.0,-999.0,63,-99.99,,,0.00,Acu-Link.com,2013-03-18 08:37:00,
2013-03-18 04:52:00,22.8,12.1,30.22,ESE,112,0.0,-999.0,63,-99.99,,,0.00,Acu-Link.com,2013-03-18 08:52:00,
2013-03-18 05:07:00,22.8,12.1,30.22,NE,45,0.0,-999.0,63,-99.99,,,0.00,Acu-Link.com,2013-03-18 09:07:00,
2013-03-18 05:23:00,22.8,12.5,30.20,NE,45,2.7,-999.0,64,-99.99,,,0.00,Acu-Link.com,2013-03-18 09:23:00,
2013-03-18 05:38:00,22.5,12.2,30.21,ENE,67,0.0,-999.0,64,-99.99,,,0.00,Acu-Link.com,2013-03-18 09:38:00,
2013-03-18 05:53:00,22.3,12.3,30.22,ENE,67,0.0,-999.0,65,-99.99,,,0.00,Acu-Link.com,2013-03-18 09:53:00,
2013-03-18 06:24:00,21.9,13.6,30.23,ENE,67,0.0,-999.0,70,-99.99,,,0.00,Acu-Link.com,2013-03-18 10:24:00,
2013-03-18 06:39:00,21.4,13.2,30.25,ENE,67,0.0,-999.0,70,-99.99,,,0.00,Acu-Link.com,2013-03-18 10:39:00,
2013-03-18 06:54:00,21.2,12.3,30.24,ENE,67,0.0,-999.0,68,-99.99,,,0.00,Acu-Link.com,2013-03-18 10:54:00,
2013-03-18 07:10:00,21.2,13.3,30.23,NNE,22,0.0,-999.0,71,-99.99,,,0.00,Acu-Link.com,2013-03-18 11:10:00,
2013-03-18 07:25:00,21.6,12.7,30.24,ESE,112,0.0,-999.0,68,-99.99,,,0.00,Acu-Link.com,2013-03-18 11:25:00,
2013-03-18 07:40:00,21.9,12.7,30.25,NE,45,0.0,-999.0,67,-99.99,,,0.00,Acu-Link.com,2013-03-18 11:40:00,
2013-03-18 07:56:00,22.3,12.3,30.26,ENE,67,0.0,-999.0,65,-99.99,,,0.00,Acu-Link.com,2013-03-18 11:56:00,
2013-03-18 08:57:00,24.8,11.0,30.26,NE,45,0.0,-999.0,55,-99.99,,,0.00,Acu-Link.com,2013-03-18 12:57:00,
2013-03-18 09:12:00,25.5,11.2,30.24,ESE,112,0.0,-999.0,54,-99.99,,,0.00,Acu-Link.com,2013-03-18 13:12:00,
2013-03-18 09:27:00,25.7,11.4,30.23,ENE,67,0.0,-999.0,54,-99.99,,,0.00,Acu-Link.com,2013-03-18 13:27:00,
2013-03-18 09:43:00,26.4,11.6,30.25,ENE,67,0.0,-999.0,53,-99.99,,,0.00,Acu-Link.com,2013-03-18 13:43:00,
2013-03-18 09:58:00,27.7,12.4,30.24,NNW,337,0.0,-999.0,52,-99.99,,,0.00,Acu-Link.com,2013-03-18 13:58:00,
2013-03-18 10:13:00,28.8,11.6,30.23,ESE,112,1.7,-999.0,48,-99.99,,,0.00,Acu-Link.com,2013-03-18 14:13:00,
2013-03-18 10:28:00,28.9,10.3,30.25,NNE,22,0.0,-999.0,45,-99.99,,,0.00,Acu-Link.com,2013-03-18 14:28:00,
2013-03-18 10:44:00,32.4,12.9,30.24,SE,135,0.0,-999.0,44,-99.99,,,0.00,Acu-Link.com,2013-03-18 14:44:00,
2013-03-18 10:59:00,32.9,11.8,30.24,SSE,157,2.7,-999.0,41,-99.99,,,0.00,Acu-Link.com,2013-03-18 14:59:00,
2013-03-18 11:14:00,32.7,11.6,30.22,SW,225,1.7,-999.0,41,-99.99,,,0.00,Acu-Link.com,2013-03-18 15:14:00,
2013-03-18 11:29:00,32.5,11.4,30.22,SE,135,0.0,-999.0,41,-99.99,,,0.00,Acu-Link.com,2013-03-18 15:29:00,
2013-03-18 11:44:00,35.1,13.8,30.23,SSW,202,0.0,-999.0,41,-99.99,,,0.00,Acu-Link.com,2013-03-18 15:44:00,
2013-03-18 12:00:00,33.4,12.3,30.23,ESE,112,3.7,-999.0,41,-99.99,,,0.00,Acu-Link.com,2013-03-18 16:00:00,
2013-03-18 12:15:00,34.2,13.5,30.22,East,90,2.2,-999.0,42,-99.99,,,0.00,Acu-Link.com,2013-03-18 16:15:00,
2013-03-18 12:30:00,35.2,13.3,30.22,South,180,3.7,-999.0,40,-99.99,,,0.00,Acu-Link.com,2013-03-18 16:30:00,
2013-03-18 12:45:00,35.2,13.9,30.23,SSW,202,0.0,-999.0,41,-99.99,,,0.00,Acu-Link.com,2013-03-18 16:45:00,
2013-03-18 13:00:00,35.8,13.3,30.22,ESE,112,0.0,-999.0,39,-99.99,,,0.00,Acu-Link.com,2013-03-18 17:00:00,
2013-03-18 13:16:00,35.2,15.5,30.20,SE,135,0.0,-999.0,44,-99.99,,,0.00,Acu-Link.com,2013-03-18 17:16:00,
2013-03-18 13:31:00,36.1,16.3,30.18,ESE,112,0.0,-999.0,44,-99.99,,,0.00,Acu-Link.com,2013-03-18 17:31:00,
2013-03-18 13:46:00,36.0,16.2,30.18,SSE,157,0.0,-999.0,44,-99.99,,,0.00,Acu-Link.com,2013-03-18 17:46:00,
2013-03-18 14:01:00,36.9,17.6,30.15,SW,225,0.0,-999.0,45,-99.99,,,0.00,Acu-Link.com,2013-03-18 18:01:00,
2013-03-18 14:17:00,36.5,17.7,30.16,ESE,112,0.0,-999.0,46,-99.99,,,0.00,Acu-Link.com,2013-03-18 18:17:00,
2013-03-18 14:32:00,36.0,17.3,30.14,SE,135,0.0,-999.0,46,-99.99,,,0.00,Acu-Link.com,2013-03-18 18:32:00,
2013-03-18 14:48:00,35.4,17.2,30.13,South,180,0.0,-999.0,47,-99.99,,,0.00,Acu-Link.com,2013-03-18 18:48:00,
2013-03-18 15:03:00,35.2,17.0,30.15,NE,45,1.1,-999.0,47,-99.99,,,0.00,Acu-Link.com,2013-03-18 19:03:00,
2013-03-18 15:18:00,34.2,16.6,30.14,ENE,67,0.0,-999.0,48,-99.99,,,0.00,Acu-Link.com,2013-03-18 19:18:00,
2013-03-18 15:33:00,34.2,17.5,30.13,ESE,112,1.1,-999.0,50,-99.99,,,0.00,Acu-Link.com,2013-03-18 19:33:00,
2013-03-18 15:49:00,34.7,17.5,30.13,SE,135,0.0,-999.0,49,-99.99,,,0.00,Acu-Link.com,2013-03-18 19:49:00,
2013-03-18 16:04:00,34.7,18.0,30.14,South,180,1.7,-999.0,50,-99.99,,,0.00,Acu-Link.com,2013-03-18 20:04:00,
2013-03-18 16:19:00,33.4,17.7,30.11,ENE,67,0.0,-999.0,52,-99.99,,,0.00,Acu-Link.com,2013-03-18 20:19:00,
2013-03-18 16:34:00,33.3,17.1,30.11,SE,135,1.7,-999.0,51,-99.99,,,0.00,Acu-Link.com,2013-03-18 20:34:00,
2013-03-18 16:49:00,33.3,18.0,30.11,ESE,112,0.0,-999.0,53,-99.99,,,0.00,Acu-Link.com,2013-03-18 20:49:00,
2013-03-18 17:05:00,33.4,19.8,30.10,SE,135,0.0,-999.0,57,-99.99,,,0.00,Acu-Link.com,2013-03-18 21:05:00,